Time;durP1;ratioP1;P1;durP2;ratioP2;P2;SDS_P1;SDS_P2;PMS_P1;PMS_P2;Temp;Humidity;BMP_temperature;BMP_pressure;BME280_temperature;BME280_humidity;BME280_pressure;Samples;Min_cycle;Max_cycle;Signal;HPM_P1;HPM_P2
2022/07/12 00:01:29;;;;;;;1.25;0.95;;;15.50;99.90;;;;;;4921241;28;90042;-32
2022/07/12 00:03:54;;;;;;;1.52;1.42;;;15.40;99.90;;;;;;4921726;28;89132;-32
2022/07/12 00:06:20;;;;;;;1.40;1.30;;;15.30;99.90;;;;;;4939563;23;90127;-33
2022/07/12 00:08:45;;;;;;;1.42;1.33;;;15.30;99.90;;;;;;4903226;28;89257;-30
2022/07/12 00:11:11;;;;;;;2.38;1.75;;;15.20;99.90;;;;;;4902455;28;90974;-30
2022/07/12 00:13:37;;;;;;;1.77;1.67;;;15.10;99.90;;;;;;4902937;28;88840;-32
2022/07/12 00:16:02;;;;;;;7.50;1.70;;;15.10;99.90;;;;;;4903029;28;90500;-30
2022/07/12 00:18:28;;;;;;;1.70;1.38;;;15.00;99.90;;;;;;4902211;28;89741;-32
2022/07/12 00:20:54;;;;;;;2.30;1.35;;;14.90;99.90;;;;;;4901651;28;89990;-30
2022/07/12 00:23:19;;;;;;;1.63;1.30;;;14.90;99.90;;;;;;4902680;28;90018;-28
2022/07/12 00:25:45;;;;;;;1.40;1.30;;;14.80;99.90;;;;;;4902908;28;90111;-29
2022/07/12 00:28:11;;;;;;;1.50;1.40;;;14.80;99.90;;;;;;4902150;28;90926;-29
2022/07/12 00:30:37;;;;;;;2.42;1.63;;;14.80;99.90;;;;;;4901755;28;90245;-33
2022/07/12 00:33:02;;;;;;;1.42;1.33;;;14.80;99.90;;;;;;4902817;28;89444;-31
2022/07/12 00:35:28;;;;;;;1.98;1.50;;;14.70;99.90;;;;;;4902181;28;89143;-29
2022/07/12 00:37:53;;;;;;;2.90;1.83;;;14.70;99.90;;;;;;4902475;28;89674;-31
2022/07/12 00:40:19;;;;;;;1.30;1.20;;;14.60;99.90;;;;;;4901628;28;89462;-29
2022/07/12 00:42:45;;;;;;;2.15;1.33;;;14.60;99.90;;;;;;4902061;28;89027;-32
2022/07/12 00:45:11;;;;;;;2.40;2.20;;;14.50;99.90;;;;;;4902454;28;90486;-31
2022/07/12 00:47:44;;;;;;;1.55;1.38;;;14.50;99.90;;;;;;4902132;28;90057;-31
2022/07/12 00:50:12;;;;;;;1.52;1.42;;;14.50;99.90;;;;;;4901983;28;89823;-32
2022/07/12 00:52:38;;;;;;;1.38;1.27;;;14.50;99.90;;;;;;4901758;28;88654;-33
2022/07/12 00:55:05;;;;;;;1.25;1.15;;;14.50;99.90;;;;;;4900507;28;90087;-30
2022/07/12 00:57:32;;;;;;;1.98;1.35;;;14.40;99.90;;;;;;4902586;28;89760;-30
2022/07/12 00:59:58;;;;;;;0.82;0.82;;;14.30;99.90;;;;;;4901852;28;88301;-31
2022/07/12 01:02:24;;;;;;;1.50;1.40;;;14.30;99.90;;;;;;4901837;28;89793;-33
2022/07/12 01:04:53;;;;;;;1.25;1.15;;;14.20;99.90;;;;;;4901994;28;90383;-33
2022/07/12 01:07:18;;;;;;;0.98;0.98;;;14.20;99.90;;;;;;4902165;28;90363;-31
2022/07/12 01:09:44;;;;;;;0.77;0.77;;;14.10;99.90;;;;;;4901768;28;89340;-30
2022/07/12 01:12:10;;;;;;;1.27;1.17;;;14.10;99.90;;;;;;4901700;28;90014;-30
2022/07/12 01:14:37;;;;;;;1.35;1.25;;;14.00;99.90;;;;;;4900900;28;90621;-30
2022/07/12 01:17:03;;;;;;;1.45;0.95;;;14.10;99.90;;;;;;4901369;28;90695;-29
2022/07/12 01:19:29;;;;;;;3.05;1.30;;;14.10;99.90;;;;;;4901830;28;90354;-32
2022/07/12 01:21:59;;;;;;;1.63;1.45;;;14.10;99.90;;;;;;4902012;28;88660;-31
2022/07/12 01:24:24;;;;;;;1.17;1.00;;;14.00;99.90;;;;;;4901146;28;90330;-33
2022/07/12 01:26:50;;;;;;;0.98;0.95;;;14.00;99.90;;;;;;4901980;28;89580;-31
2022/07/12 01:29:16;;;;;;;1.25;1.20;;;13.90;99.90;;;;;;4901094;28;90877;-31
2022/07/12 01:31:43;;;;;;;1.23;1.13;;;13.90;99.90;;;;;;4901850;28;89363;-31
2022/07/12 01:34:08;;;;;;;1.15;1.05;;;13.80;99.90;;;;;;4901377;28;90409;-32
2022/07/12 01:36:36;;;;;;;1.58;1.48;;;13.80;99.90;;;;;;4901261;28;89690;-31
2022/07/12 01:39:03;;;;;;;1.40;1.30;;;13.70;99.90;;;;;;4900717;28;89944;-32
2022/07/12 01:41:29;;;;;;;1.08;1.08;;;13.70;99.90;;;;;;4901350;28;89678;-32
2022/07/12 01:43:55;;;;;;;1.35;1.25;;;13.70;99.90;;;;;;4901062;28;91260;-31
2022/07/12 01:46:20;;;;;;;0.82;0.82;;;13.60;99.90;;;;;;4900977;28;89670;-31
2022/07/12 01:48:46;;;;;;;1.92;1.77;;;13.60;99.90;;;;;;4901635;28;89726;-29
2022/07/12 01:51:11;;;;;;;1.48;1.38;;;13.60;99.90;;;;;;4900967;28;89119;-30
2022/07/12 01:53:37;;;;;;;1.63;1.25;;;13.60;99.90;;;;;;4901631;28;90162;-33
2022/07/12 01:56:03;;;;;;;0.88;0.82;;;13.60;99.90;;;;;;4901061;28;89813;-31
2022/07/12 01:58:30;;;;;;;1.25;0.82;;;13.70;99.90;;;;;;4901538;28;89861;-32
2022/07/12 02:00:57;;;;;;;1.08;1.05;;;13.70;99.90;;;;;;4901850;28;89261;-30
2022/07/12 02:03:22;;;;;;;1.95;1.38;;;13.70;99.90;;;;;;4900195;28;89794;-31
2022/07/12 02:05:48;;;;;;;1.48;1.38;;;13.70;99.90;;;;;;4901078;28;90438;-30
2022/07/12 02:08:13;;;;;;;0.82;0.77;;;13.70;99.90;;;;;;4900333;28;90787;-30
2022/07/12 02:10:48;;;;;;;0.80;0.80;;;13.70;99.90;;;;;;4901402;28;90407;-29
2022/07/12 02:13:14;;;;;;;0.73;0.73;;;13.60;99.90;;;;;;4900997;28;91585;-31
2022/07/12 02:15:39;;;;;;;2.20;0.98;;;13.60;99.90;;;;;;4900833;28;88982;-29
2022/07/12 02:18:05;;;;;;;2.58;1.30;;;13.60;99.90;;;;;;4900399;28;89239;-32
2022/07/12 02:20:30;;;;;;;2.20;1.08;;;13.50;99.90;;;;;;4900992;28;88238;-32
2022/07/12 02:22:56;;;;;;;1.80;0.90;;;13.50;99.90;;;;;;4901788;28;90150;-31
2022/07/12 02:25:22;;;;;;;1.10;1.00;;;13.40;99.90;;;;;;4902411;28;91233;-31
2022/07/12 02:27:47;;;;;;;1.25;1.15;;;13.40;99.90;;;;;;4904212;28;89097;-31
2022/07/12 02:30:13;;;;;;;1.67;1.58;;;13.30;99.90;;;;;;4903835;28;89026;-32
2022/07/12 02:32:39;;;;;;;1.70;1.60;;;13.20;99.90;;;;;;4903634;28;90311;-30
2022/07/12 02:35:06;;;;;;;1.50;1.40;;;13.20;99.90;;;;;;4904448;28;89602;-32
2022/07/12 02:37:32;;;;;;;1.42;1.33;;;13.10;99.90;;;;;;4904021;28;90260;-30
2022/07/12 02:42:42;;;;;;;1.60;1.50;;;13.10;99.90;;;;;;4904121;28;90371;-30
2022/07/12 02:45:10;;;;;;;2.03;1.50;;;13.00;99.90;;;;;;4903797;28;89889;-31
2022/07/12 02:47:40;;;;;;;1.90;1.42;;;13.00;99.90;;;;;;4904712;28;89844;-33
2022/07/12 02:50:06;;;;;;;1.42;1.27;;;13.00;99.90;;;;;;4904155;28;89119;-33
2022/07/12 02:52:32;;;;;;;2.35;1.60;;;13.00;99.90;;;;;;4904266;28;90307;-31
2022/07/12 02:54:57;;;;;;;1.73;1.48;;;13.00;99.90;;;;;;4902765;28;90759;-34
2022/07/12 02:57:23;;;;;;;2.47;2.28;;;13.00;99.90;;;;;;4904277;28;90398;-30
2022/07/12 02:59:49;;;;;;;1.95;1.85;;;12.90;99.90;;;;;;4904413;28;90332;-30
2022/07/12 03:02:15;;;;;;;3.67;1.88;;;13.00;99.90;;;;;;4903662;28;89004;-31
2022/07/12 03:04:40;;;;;;;1.77;1.67;;;12.90;99.90;;;;;;4903800;28;90175;-30
2022/07/12 03:07:06;;;;;;;1.73;1.63;;;12.90;99.90;;;;;;4902904;28;89414;-30
2022/07/12 03:09:32;;;;;;;1.52;1.42;;;12.80;99.90;;;;;;4904123;28;88431;-30
2022/07/12 03:11:57;;;;;;;1.67;1.50;;;12.80;99.90;;;;;;4903911;28;91494;-34
2022/07/12 03:14:23;;;;;;;1.60;1.50;;;12.80;99.90;;;;;;4903780;28;90061;-31
2022/07/12 03:16:49;;;;;;;3.58;2.25;;;12.80;99.90;;;;;;4902425;28;91393;-30
2022/07/12 03:19:15;;;;;;;2.20;2.00;;;12.70;99.90;;;;;;4902785;28;89751;-30
2022/07/12 03:21:41;;;;;;;1.98;1.85;;;12.70;99.90;;;;;;4904352;28;89664;-31
2022/07/12 03:24:06;;;;;;;1.48;1.35;;;12.70;99.90;;;;;;4903022;28;89637;-31
2022/07/12 03:26:32;;;;;;;1.33;1.23;;;12.70;99.90;;;;;;4903095;28;89734;-32
2022/07/12 03:29:00;;;;;;;2.10;2.00;;;12.70;99.90;;;;;;4902470;28;89097;-34
2022/07/12 03:31:26;;;;;;;;;;;12.70;99.90;;;;;;4903345;28;90363;-32
2022/07/12 03:33:52;;;;;;;1.85;1.75;;;12.60;99.90;;;;;;4904380;28;89614;-33
2022/07/12 03:36:17;;;;;;;2.03;1.92;;;12.60;99.90;;;;;;4902620;28;89415;-31
2022/07/12 03:38:43;;;;;;;1.67;1.58;;;12.70;99.90;;;;;;4902852;28;88773;-31
2022/07/12 03:41:09;;;;;;;1.75;1.45;;;12.60;99.90;;;;;;4902979;28;88829;-33
2022/07/12 03:43:34;;;;;;;1.98;1.77;;;12.60;99.90;;;;;;4902211;28;90705;-33
2022/07/12 03:46:00;;;;;;;2.13;1.63;;;12.60;99.90;;;;;;4903214;28;89432;-32
2022/07/12 03:48:25;;;;;;;3.60;1.58;;;12.60;99.90;;;;;;4903172;28;88386;-32
2022/07/12 03:50:51;;;;;;;2.28;2.08;;;12.60;99.90;;;;;;4903568;28;90536;-31
2022/07/12 03:53:17;;;;;;;1.60;1.45;;;12.60;99.90;;;;;;4903125;28;89812;-33
2022/07/12 03:55:42;;;;;;;3.17;2.03;;;12.60;99.90;;;;;;4902860;28;89530;-30
2022/07/12 03:58:08;;;;;;;1.48;1.38;;;12.60;99.90;;;;;;4903520;28;88123;-34
2022/07/12 04:00:34;;;;;;;1.65;1.55;;;12.60;99.90;;;;;;4903144;28;90616;-33
2022/07/12 04:02:59;;;;;;;2.88;1.90;;;12.60;99.90;;;;;;4902768;28;90048;-30
2022/07/12 04:05:26;;;;;;;2.35;2.15;;;12.70;99.90;;;;;;4902434;28;89509;-31
2022/07/12 04:07:53;;;;;;;2.17;1.98;;;12.70;99.90;;;;;;4902534;28;89385;-31
2022/07/12 04:10:18;;;;;;;1.88;1.73;;;12.80;99.90;;;;;;4901882;28;90245;-33
2022/07/12 04:12:44;;;;;;;1.92;1.83;;;12.80;99.90;;;;;;4903124;28;90111;-32
2022/07/12 04:15:10;;;;;;;3.40;2.95;;;12.90;99.90;;;;;;4902046;28;89733;-31
2022/07/12 04:17:35;;;;;;;2.08;1.98;;;13.00;99.90;;;;;;4903056;28;88734;-29
2022/07/12 04:20:01;;;;;;;3.08;2.88;;;13.00;99.90;;;;;;4902659;28;90292;-30
2022/07/12 04:22:27;;;;;;;1.90;1.70;;;13.10;99.90;;;;;;4902777;28;89763;-31
2022/07/12 04:24:52;;;;;;;2.38;2.15;;;13.20;99.90;;;;;;4902276;28;89366;-32
2022/07/12 04:27:18;;;;;;;2.40;2.17;;;13.30;99.90;;;;;;4902764;28;89451;-29
2022/07/12 04:29:44;;;;;;;2.30;1.92;;;13.40;99.90;;;;;;4901773;28;90753;-30
2022/07/12 04:32:09;;;;;;;3.78;2.50;;;13.50;99.90;;;;;;4902156;28;90715;-30
2022/07/12 04:34:35;;;;;;;2.72;2.40;;;13.60;99.90;;;;;;4903329;28;90319;-30
2022/07/12 04:37:00;;;;;;;3.30;2.97;;;13.80;99.90;;;;;;4902179;28;88700;-31
2022/07/12 04:39:26;;;;;;;3.95;3.40;;;13.90;99.90;;;;;;4901516;28;89934;-31
2022/07/12 04:41:51;;;;;;;4.15;3.55;;;14.00;99.90;;;;;;4902517;28;89727;-31
2022/07/12 04:44:17;;;;;;;3.53;3.22;;;14.10;99.90;;;;;;4902565;28;89556;-30
2022/07/12 04:46:42;;;;;;;2.42;2.15;;;14.30;99.90;;;;;;4902729;28;88524;-31
2022/07/12 04:49:09;;;;;;;4.03;3.63;;;14.40;99.90;;;;;;4901004;28;91045;-31
2022/07/12 04:51:34;;;;;;;3.28;2.97;;;14.50;99.90;;;;;;4902220;28;89398;-28
2022/07/12 04:54:00;;;;;;;4.28;2.85;;;14.70;99.90;;;;;;4902058;28;89629;-29
2022/07/12 04:56:25;;;;;;;2.80;2.45;;;14.80;99.90;;;;;;4902262;28;89539;-30
2022/07/12 04:58:51;;;;;;;2.38;2.17;;;15.00;99.90;;;;;;4902469;28;90810;-30
2022/07/12 05:01:17;;;;;;;3.42;3.13;;;15.00;99.90;;;;;;4901633;28;89392;-32
2022/07/12 05:03:42;;;;;;;4.65;3.60;;;15.20;99.90;;;;;;4901973;28;89686;-30
2022/07/12 05:06:08;;;;;;;5.78;3.45;;;15.30;99.90;;;;;;4901812;28;90007;-34
2022/07/12 05:08:34;;;;;;;5.25;4.43;;;15.30;99.90;;;;;;4901718;28;89542;-29
2022/07/12 05:11:00;;;;;;;4.65;4.25;;;15.50;99.90;;;;;;4901510;28;89650;-30
2022/07/12 05:13:25;;;;;;;5.13;4.53;;;15.70;99.90;;;;;;4902010;28;89066;-30
2022/07/12 05:15:51;;;;;;;5.57;5.05;;;16.00;99.90;;;;;;4902227;28;88953;-32
2022/07/12 05:18:17;;;;;;;5.38;4.88;;;16.20;99.90;;;;;;4901557;28;90662;-32
2022/07/12 05:20:42;;;;;;;6.57;5.97;;;16.30;99.90;;;;;;4901966;28;90300;-31
2022/07/12 05:23:08;;;;;;;6.15;5.55;;;16.50;99.90;;;;;;4901668;28;90499;-31
2022/07/12 05:25:34;;;;;;;5.95;5.38;;;16.70;99.90;;;;;;4902331;28;90409;-32
2022/07/12 05:27:59;;;;;;;6.03;5.53;;;16.80;99.90;;;;;;4901249;28;90304;-31
2022/07/12 05:30:25;;;;;;;6.63;5.93;;;16.90;99.90;;;;;;4901732;28;90520;-31
2022/07/12 05:32:51;;;;;;;5.30;4.80;;;16.90;99.90;;;;;;4901824;28;90163;-33
2022/07/12 05:35:17;;;;;;;6.07;5.50;;;17.00;99.90;;;;;;4901852;28;89546;-31
2022/07/12 05:37:43;;;;;;;5.28;4.75;;;17.00;99.90;;;;;;4901821;28;90429;-31
2022/07/12 05:40:09;;;;;;;5.32;4.82;;;17.00;99.90;;;;;;4900802;28;89162;-32
2022/07/12 05:42:35;;;;;;;6.60;5.90;;;16.90;99.90;;;;;;4901430;28;90001;-33
2022/07/12 05:45:00;;;;;;;6.22;5.57;;;16.90;99.90;;;;;;4901144;28;90507;-32
2022/07/12 05:47:26;;;;;;;5.75;5.25;;;16.80;99.90;;;;;;4901770;28;89160;-33
2022/07/12 05:49:51;;;;;;;7.20;6.50;;;16.80;99.90;;;;;;4901648;28;89460;-31
2022/07/12 05:55:02;;;;;;;5.85;5.15;;;16.70;99.90;;;;;;4901692;28;89092;-33
2022/07/12 05:57:27;;;;;;;6.82;6.07;;;16.60;99.90;;;;;;4901372;28;90212;-30
2022/07/12 05:59:53;;;;;;;6.95;5.90;;;16.60;99.90;;;;;;4900780;28;89487;-34
2022/07/12 06:02:19;;;;;;;6.15;5.55;;;16.80;99.90;;;;;;4901251;28;90221;-31
2022/07/12 06:04:44;;;;;;;7.20;6.50;;;16.90;99.90;;;;;;4901740;28;88991;-33
2022/07/12 06:07:10;;;;;;;7.13;6.43;;;17.20;99.90;;;;;;4901029;28;90219;-29
2022/07/12 06:09:36;;;;;;;9.13;7.15;;;17.40;99.90;;;;;;4900708;28;90630;-31
2022/07/12 06:12:02;;;;;;;7.80;6.38;;;17.70;99.90;;;;;;4901069;28;90857;-31
2022/07/12 06:14:28;;;;;;;6.55;5.95;;;18.00;99.90;;;;;;4901600;28;88715;-32
2022/07/12 06:16:53;;;;;;;6.88;6.28;;;18.30;99.90;;;;;;4901053;28;90240;-33
2022/07/12 06:19:19;;;;;;;6.37;5.77;;;18.40;99.90;;;;;;4901371;28;88298;-31
2022/07/12 06:21:44;;;;;;;6.88;6.25;;;18.30;99.90;;;;;;4900439;28;89848;-31
2022/07/12 06:24:10;;;;;;;6.35;5.45;;;18.20;99.90;;;;;;4901742;28;89023;-31
2022/07/12 06:26:36;;;;;;;8.57;7.78;;;18.20;99.90;;;;;;4901234;28;90338;-31
2022/07/12 06:29:01;;;;;;;7.65;6.82;;;18.30;99.90;;;;;;4900846;28;90001;-33
2022/07/12 06:31:28;;;;;;;7.00;6.30;;;18.30;99.90;;;;;;4901223;28;89432;-31
2022/07/12 06:33:53;;;;;;;7.90;7.10;;;18.30;99.90;;;;;;4900241;28;89724;-32
2022/07/12 06:36:19;;;;;;;8.25;7.47;;;18.30;99.90;;;;;;4900712;28;90177;-31
2022/07/12 06:38:45;;;;;;;11.95;7.75;;;18.40;99.90;;;;;;4900629;28;89702;-31
2022/07/12 06:41:10;;;;;;;7.15;6.40;;;18.40;99.90;;;;;;4901184;28;90195;-32
2022/07/12 06:43:36;;;;;;;10.85;7.47;;;18.40;99.90;;;;;;4901657;28;89570;-30
2022/07/12 06:46:01;;;;;;;7.43;6.60;;;18.40;99.90;;;;;;4899937;28;90336;-34
2022/07/12 06:48:27;;;;;;;8.05;7.25;;;18.50;99.90;;;;;;4901123;28;89696;-31
2022/07/12 06:50:53;;;;;;;8.45;7.55;;;18.50;99.90;;;;;;4900853;28;89539;-31
2022/07/12 06:53:20;;;;;;;8.52;7.72;;;18.60;99.90;;;;;;4901089;28;88690;-32
2022/07/12 06:55:45;;;;;;;10.95;8.80;;;18.60;99.90;;;;;;4900809;28;90238;-33
2022/07/12 06:58:11;;;;;;;8.45;7.20;;;18.70;99.90;;;;;;4899720;28;90945;-33
2022/07/12 07:00:37;;;;;;;7.82;6.95;;;18.70;99.90;;;;;;4901033;28;90544;-30
2022/07/12 07:03:05;;;;;;;9.52;8.73;;;18.80;99.90;;;;;;4900084;28;89396;-29
2022/07/12 07:05:31;;;;;;;12.75;10.07;;;18.90;99.90;;;;;;4899016;28;90746;-30
2022/07/12 07:07:57;;;;;;;9.57;8.20;;;18.90;99.90;;;;;;4900339;28;90188;-32
2022/07/12 07:10:22;;;;;;;9.68;8.68;;;19.00;99.90;;;;;;4899992;28;89430;-32
2022/07/12 07:12:48;;;;;;;9.35;8.32;;;19.20;99.90;;;;;;4901412;28;88065;-33
2022/07/12 07:15:15;;;;;;;8.93;8.13;;;19.40;99.90;;;;;;4908537;28;91874;-34
2022/07/12 07:17:42;;;;;;;11.37;9.87;;;19.60;99.90;;;;;;4909960;28;89436;-31
2022/07/12 07:20:09;;;;;;;8.45;7.13;;;19.80;99.90;;;;;;4908600;28;89951;-32
2022/07/12 07:22:35;;;;;;;9.70;7.97;;;19.90;99.90;;;;;;4905849;28;90131;-32
2022/07/12 07:25:00;;;;;;;10.68;8.50;;;20.10;99.90;;;;;;4911690;28;90266;-31
2022/07/12 07:27:26;;;;;;;7.30;6.70;;;20.20;99.90;;;;;;4907728;28;89667;-33
2022/07/12 07:32:35;;;;;;;8.27;7.25;;;20.50;99.90;;;;;;4909958;28;87791;-31
2022/07/12 07:35:01;;;;;;;6.88;6.20;;;20.70;99.90;;;;;;4907262;28;90013;-31
2022/07/12 07:37:27;;;;;;;8.05;7.25;;;20.90;99.90;;;;;;4900642;28;89010;-33
2022/07/12 07:39:53;;;;;;;7.35;5.80;;;21.10;99.90;;;;;;4904442;28;89478;-30
2022/07/12 07:42:18;;;;;;;6.05;5.47;;;21.20;99.90;;;;;;4905103;28;89190;-31
2022/07/12 07:44:44;;;;;;;5.95;5.43;;;21.40;99.90;;;;;;4902967;28;91073;-32
2022/07/12 07:47:09;;;;;;;7.88;5.30;;;21.60;99.90;;;;;;4901390;28;91148;-32
2022/07/12 07:49:35;;;;;;;5.82;4.53;;;21.60;99.90;;;;;;4901319;28;90287;-32
2022/07/12 07:52:01;;;;;;;4.53;4.10;;;21.90;99.90;;;;;;4902354;28;90211;-31
2022/07/12 07:54:27;;;;;;;4.95;4.45;;;22.10;99.90;;;;;;4902661;28;90460;-33
2022/07/12 07:56:52;;;;;;;5.28;4.05;;;22.30;99.90;;;;;;4903098;28;89700;-31
2022/07/12 07:59:18;;;;;;;4.57;4.18;;;22.60;99.90;;;;;;4902211;28;89919;-32
2022/07/12 08:01:48;;;;;;;4.32;3.97;;;22.70;99.90;;;;;;4902930;28;89599;-31
2022/07/12 08:04:18;;;;;;;5.07;4.57;;;22.90;99.90;;;;;;4902489;28;89793;-31
2022/07/12 08:06:44;;;;;;;4.70;4.30;;;23.20;99.90;;;;;;4902540;28;90305;-33
2022/07/12 08:09:11;;;;;;;5.00;4.60;;;23.40;99.90;;;;;;4902474;28;89503;-32
2022/07/12 08:11:37;;;;;;;4.57;4.25;;;23.60;99.90;;;;;;4902761;28;90382;-31
2022/07/12 08:14:04;;;;;;;4.30;4.00;;;23.70;99.90;;;;;;4902687;28;90120;-32
2022/07/12 08:16:30;;;;;;;4.00;3.70;;;23.70;99.90;;;;;;4902615;28;90254;-33
2022/07/12 08:18:56;;;;;;;4.32;2.95;;;23.70;99.90;;;;;;4902196;28;89430;-32
2022/07/12 08:21:22;;;;;;;4.22;3.35;;;23.80;99.90;;;;;;4903319;28;88936;-33
2022/07/12 08:23:48;;;;;;;3.78;3.33;;;23.90;99.90;;;;;;4902216;28;91901;-33
2022/07/12 08:26:14;;;;;;;3.33;3.13;;;24.00;99.90;;;;;;4901754;28;89099;-32
2022/07/12 08:28:39;;;;;;;5.63;3.78;;;24.20;99.90;;;;;;4902583;28;89179;-31
2022/07/12 08:31:05;;;;;;;4.07;3.67;;;24.40;99.90;;;;;;4902225;28;87951;-32
2022/07/12 08:33:30;;;;;;;4.78;4.22;;;24.40;99.90;;;;;;4902787;28;90551;-31
2022/07/12 08:35:56;;;;;;;5.78;5.10;;;24.50;99.90;;;;;;4902058;28;90710;-31
2022/07/12 08:38:21;;;;;;;4.18;3.67;;;24.60;99.90;;;;;;4902349;28;90911;-33
2022/07/12 08:40:47;;;;;;;5.82;4.32;;;24.80;99.90;;;;;;4902010;28;88726;-32
2022/07/12 08:43:13;;;;;;;4.05;3.75;;;25.00;99.90;;;;;;4901996;28;89676;-31
2022/07/12 08:45:40;;;;;;;4.85;4.32;;;25.10;99.90;;;;;;4902698;28;89720;-33
2022/07/12 08:48:07;;;;;;;3.65;3.40;;;25.30;99.90;;;;;;4902096;28;89446;-32
2022/07/12 08:50:33;;;;;;;5.20;4.70;;;25.30;99.90;;;;;;4902228;28;89090;-32
2022/07/12 08:52:59;;;;;;;3.95;3.67;;;25.30;99.90;;;;;;4901609;28;90208;-32
2022/07/12 08:55:36;;;;;;;3.63;3.35;;;25.20;99.90;;;;;;4901858;28;90871;-31
2022/07/12 08:58:06;;;;;;;4.15;3.75;;;25.20;99.90;;;;;;4901910;28;89878;-34
2022/07/12 09:00:32;;;;;;;4.35;4.05;;;25.10;99.90;;;;;;4901829;28;89044;-33
2022/07/12 09:03:00;;;;;;;4.38;4.07;;;25.20;99.90;;;;;;4901821;28;91851;-32
2022/07/12 09:05:30;;;;;;;6.28;3.45;;;25.20;99.90;;;;;;4901936;28;89743;-31
2022/07/12 09:08:10;;;;;;;3.70;3.40;;;25.10;99.90;;;;;;4902322;28;89439;-32
2022/07/12 09:10:50;;;;;;;4.32;4.03;;;25.10;99.90;;;;;;4903451;28;89576;-31
2022/07/12 09:13:19;;;;;;;4.13;3.45;;;25.00;99.90;;;;;;4902246;28;90296;-33
2022/07/12 09:15:48;;;;;;;3.35;3.15;;;25.00;99.90;;;;;;4902256;28;89964;-34
2022/07/12 09:18:16;;;;;;;5.25;3.20;;;24.90;99.90;;;;;;4902256;28;89845;-33
2022/07/12 09:20:43;;;;;;;3.88;2.60;;;24.90;99.90;;;;;;4907573;28;89567;-32
2022/07/12 09:23:11;;;;;;;;;;;24.90;99.90;;;;;;4909725;28;90302;-32
2022/07/12 09:25:44;;;;;;;3.40;3.10;;;25.00;99.90;;;;;;4902664;28;90492;-34
2022/07/12 09:28:10;;;;;;;3.00;2.75;;;25.00;99.90;;;;;;4902123;28;90563;-31
2022/07/12 09:30:37;;;;;;;4.00;3.70;;;24.90;99.90;;;;;;4902075;28;89645;-34
2022/07/12 09:36:12;;;;;;;4.05;3.65;;;24.90;99.90;;;;;;4901645;28;89666;-34
2022/07/12 09:38:54;;;;;;;7.85;2.92;;;25.00;99.90;;;;;;4902853;28;89194;-31
2022/07/12 09:41:21;;;;;;;3.50;3.20;;;25.20;99.90;;;;;;4903778;28;88911;-34
2022/07/12 09:43:47;;;;;;;3.65;3.33;;;25.20;99.90;;;;;;4901708;28;90213;-31
2022/07/12 09:46:17;;;;;;;4.07;3.40;;;25.30;99.90;;;;;;4901170;28;89437;-33
2022/07/12 09:48:46;;;;;;;3.50;3.30;;;25.30;99.90;;;;;;4913124;28;90365;-32
2022/07/12 09:51:15;;;;;;;2.90;2.70;;;25.50;99.90;;;;;;4914744;28;88809;-33
2022/07/12 09:53:45;;;;;;;3.33;3.03;;;25.60;99.90;;;;;;4915549;28;90125;-30
2022/07/12 09:56:19;;;;;;;2.97;2.60;;;25.60;99.90;;;;;;4915186;28;89672;-32
2022/07/12 09:58:50;;;;;;;4.07;2.70;;;25.60;99.90;;;;;;4914595;28;89631;-32
2022/07/12 10:01:17;;;;;;;3.08;2.88;;;25.60;99.90;;;;;;4908359;28;88543;-32
2022/07/12 10:03:43;;;;;;;3.13;2.90;;;25.50;99.90;;;;;;4901180;28;90458;-32
2022/07/12 10:06:11;;;;;;;3.38;2.83;;;25.50;99.90;;;;;;4899927;28;89318;-33
2022/07/12 10:08:37;;;;;;;2.55;2.35;;;25.70;99.90;;;;;;4900705;28;89828;-35
2022/07/12 10:11:03;;;;;;;2.33;2.17;;;25.90;99.90;;;;;;4901493;28;89226;-31
2022/07/12 10:13:30;;;;;;;3.08;2.88;;;26.10;99.90;;;;;;4904304;28;90368;-31
2022/07/12 10:16:02;;;;;;;3.60;2.22;;;26.10;99.90;;;;;;4908932;28;89310;-31
2022/07/12 10:18:29;;;;;;;1.88;1.77;;;26.10;99.90;;;;;;4913377;28;90718;-32
2022/07/12 10:20:55;;;;;;;2.17;1.98;;;26.20;99.90;;;;;;4907847;28;88694;-33
2022/07/12 10:23:27;;;;;;;2.50;2.30;;;26.30;99.90;;;;;;4905776;28;90391;-33
2022/07/12 10:25:53;;;;;;;3.17;2.97;;;26.30;99.90;;;;;;4889415;28;90160;-34
2022/07/12 10:28:19;;;;;;;2.70;2.50;;;26.30;99.90;;;;;;4897835;28;89506;-34
2022/07/12 10:30:50;;;;;;;3.13;2.88;;;26.30;99.90;;;;;;4900490;28;88450;-32
2022/07/12 10:33:16;;;;;;;3.08;2.75;;;26.20;99.90;;;;;;4901175;28;89965;-32
2022/07/12 10:36:05;;;;;;;2.38;2.17;;;26.30;99.90;;;;;;4899963;28;89948;-32
2022/07/12 10:38:31;;;;;;;2.53;2.33;;;26.30;99.90;;;;;;4903505;28;90034;-32
2022/07/12 10:40:57;;;;;;;2.58;2.42;;;26.30;99.90;;;;;;4900001;28;88580;-35
2022/07/12 10:44:04;;;;;;;1.70;1.60;;;26.40;99.90;;;;;;4906412;28;90096;-33
2022/07/12 10:46:17;;;;;;;1.50;1.40;;;26.30;99.90;;;;;;4906560;28;90412;-33
2022/07/12 10:48:42;;;;;;;1.88;1.50;;;26.10;99.90;;;;;;4906448;28;89571;-34
2022/07/12 10:51:16;;;;;;;1.58;1.48;;;25.90;99.90;;;;;;4905203;28;88916;-31
2022/07/12 10:53:45;;;;;;;3.17;1.88;;;25.70;99.90;;;;;;4910152;28;90796;-34
2022/07/12 10:56:20;;;;;;;1.60;1.50;;;25.70;99.90;;;;;;4903432;28;89695;-32
2022/07/12 10:58:53;;;;;;;1.50;1.40;;;25.60;99.90;;;;;;4907404;28;89578;-32
2022/07/12 11:01:27;;;;;;;1.40;1.30;;;25.80;99.90;;;;;;4901121;28;87955;-32
2022/07/12 11:04:09;;;;;;;0.85;0.85;;;25.90;99.90;;;;;;4898486;28;89398;-32
2022/07/12 11:06:40;;;;;;;1.40;1.20;;;26.10;99.90;;;;;;4896079;28;91253;-32
2022/07/12 11:09:08;;;;;;;2.30;1.67;;;26.10;99.90;;;;;;4894750;28;90716;-33
2022/07/12 11:11:35;;;;;;;;;;;26.30;99.90;;;;;;4894188;28;88693;-33
2022/07/12 11:14:02;;;;;;;1.10;1.10;;;26.30;99.90;;;;;;4899411;28;90326;-31
2022/07/12 11:16:29;;;;;;;1.33;1.23;;;26.30;99.90;;;;;;4896526;28;89327;-33
2022/07/12 11:18:55;;;;;;;1.08;1.08;;;26.30;99.90;;;;;;4896083;28;90076;-32
2022/07/12 11:21:22;;;;;;;1.50;1.40;;;26.30;99.90;;;;;;4896852;28;87663;-33
2022/07/12 11:23:48;;;;;;;13.52;2.90;;;26.30;99.90;;;;;;4902103;28;90525;-31
2022/07/12 11:26:14;;;;;;;3.05;1.73;;;26.30;99.90;;;;;;4914349;28;89818;-32
2022/07/12 11:28:42;;;;;;;0.80;0.80;;;26.40;99.90;;;;;;4915029;28;89835;-32
2022/07/12 11:31:13;;;;;;;1.23;0.80;;;26.40;99.90;;;;;;4910061;28;88881;-33
2022/07/12 11:33:42;;;;;;;1.65;1.10;;;26.50;99.90;;;;;;4903048;28;90337;-33
2022/07/12 11:36:13;;;;;;;1.55;1.30;;;26.40;99.90;;;;;;4901284;28;90019;-32
2022/07/12 11:38:40;;;;;;;1.38;1.20;;;26.30;99.90;;;;;;4901425;28;88920;-34
2022/07/12 11:41:07;;;;;;;;;;;26.40;99.90;;;;;;4902078;28;88997;-32
2022/07/12 11:43:35;;;;;;;0.90;0.90;;;26.40;99.90;;;;;;4908483;28;89913;-33
2022/07/12 11:46:03;;;;;;;1.15;1.02;;;26.50;99.90;;;;;;4905306;28;90516;-36
2022/07/12 11:48:35;;;;;;;0.80;0.80;;;26.70;99.90;;;;;;4905521;28;89077;-34
2022/07/12 11:51:08;;;;;;;0.73;0.73;;;26.60;99.90;;;;;;4897647;28;89515;-33
2022/07/12 11:53:35;;;;;;;9.82;2.78;;;26.50;99.90;;;;;;4901412;28;90339;-32
2022/07/12 11:56:02;;;;;;;1.40;1.30;;;26.50;99.90;;;;;;4900743;28;90659;-32
2022/07/12 11:58:28;;;;;;;2.83;1.90;;;26.50;99.90;;;;;;4903101;28;91534;-33
2022/07/12 12:00:55;;;;;;;1.60;1.45;;;26.40;99.90;;;;;;4908894;28;88934;-31
2022/07/12 12:03:22;;;;;;;2.97;1.85;;;26.40;99.90;;;;;;4914396;28;90106;-32
2022/07/12 12:05:50;;;;;;;2.93;1.20;;;26.30;99.90;;;;;;4942655;23;89557;-32
2022/07/12 12:08:17;;;;;;;1.08;1.08;;;26.40;99.90;;;;;;4927771;28;89765;-33
2022/07/12 12:10:51;;;;;;;1.30;1.20;;;26.40;99.90;;;;;;4908729;28;89656;-33
2022/07/12 12:13:18;;;;;;;2.72;1.75;;;26.40;99.90;;;;;;4917859;28;89982;-33
2022/07/12 12:15:57;;;;;;;1.17;1.08;;;26.50;99.90;;;;;;4921047;28;89723;-33
2022/07/12 12:18:34;;;;;;;1.50;1.33;;;26.60;99.90;;;;;;4918619;28;88425;-34
2022/07/12 12:21:06;;;;;;;2.45;2.25;;;26.70;99.90;;;;;;4920129;28;90192;-33
2022/07/12 12:23:32;;;;;;;2.60;1.45;;;26.90;99.90;;;;;;4927359;28;90077;-32
2022/07/12 12:26:21;;;;;;;1.75;1.40;;;26.90;99.90;;;;;;4932678;28;88994;-35
2022/07/12 12:28:52;;;;;;;1.20;1.10;;;26.90;99.90;;;;;;4917459;28;89935;-33
2022/07/12 12:31:20;;;;;;;4.22;1.70;;;26.90;99.90;;;;;;4909494;28;88022;-33
2022/07/12 12:33:48;;;;;;;6.82;1.60;;;27.00;99.90;;;;;;4924194;28;90701;-34
2022/07/12 12:36:21;;;;;;;1.00;1.00;;;27.10;99.90;;;;;;4932397;28;89596;-31
2022/07/12 12:38:51;;;;;;;1.25;1.23;;;27.10;99.90;;;;;;4921594;28;89532;-31
2022/07/12 12:41:17;;;;;;;1.48;1.38;;;27.20;99.90;;;;;;4929636;28;87619;-34
2022/07/12 12:43:43;;;;;;;11.25;2.38;;;27.20;99.90;;;;;;4928341;28;90299;-34
2022/07/12 12:46:09;;;;;;;1.90;1.70;;;27.10;99.90;;;;;;4926928;28;90619;-34
2022/07/12 12:48:36;;;;;;;2.92;1.20;;;27.20;99.90;;;;;;4924783;28;90307;-32
2022/07/12 12:51:10;;;;;;;5.03;1.65;;;27.20;99.90;;;;;;4924453;28;88651;-32
2022/07/12 12:53:39;;;;;;;1.92;1.55;;;27.20;99.90;;;;;;4930590;28;90801;-32
2022/07/12 12:56:09;;;;;;;1.65;1.08;;;27.10;99.90;;;;;;4928324;28;88604;-32
2022/07/12 12:58:35;;;;;;;2.42;1.58;;;27.10;99.90;;;;;;4924169;28;90020;-32